Time;durP1;ratioP1;P1;durP2;ratioP2;P2;SDS_P1;SDS_P2;PMS_P1;PMS_P2;Temp;Humidity;BMP_temperature;BMP_pressure;BME280_temperature;BME280_humidity;BME280_pressure;Samples;Min_cycle;Max_cycle;Signal;HPM_P1;HPM_P2
2022/08/14 00:00:11;;;;;;;12.37;11.25;;;;;;;19.71;100.00;98827.23;1765895;79;21207;-75
2022/08/14 00:02:39;;;;;;;16.67;13.45;;;;;;;19.65;100.00;98837.01;1766747;79;21007;-75
2022/08/14 00:05:07;;;;;;;13.13;11.88;;;;;;;19.62;100.00;98838.11;1765180;79;20993;-75
2022/08/14 00:07:37;;;;;;;17.80;12.98;;;;;;;19.60;100.00;98838.24;1757767;80;21033;-75
2022/08/14 00:10:06;;;;;;;14.03;10.95;;;;;;;19.58;100.00;98835.42;1769177;79;21006;-75
2022/08/14 00:12:52;;;;;;;15.65;11.80;;;;;;;19.58;100.00;98838.05;1766579;79;21830;-75
2022/08/14 00:15:29;;;;;;;13.53;11.85;;;;;;;19.60;100.00;98842.69;1763847;80;21407;-74
2022/08/14 00:17:56;;;;;;;14.85;13.32;;;;;;;19.63;100.00;98842.91;1757417;80;20985;-75
2022/08/14 00:20:31;;;;;;;14.80;11.05;;;;;;;19.65;100.00;98851.52;1759823;80;20985;-75
2022/08/14 00:23:08;;;;;;;14.80;10.72;;;;;;;19.65;100.00;98844.92;1762117;80;21024;-75
2022/08/14 00:25:34;;;;;;;18.32;11.60;;;;;;;19.65;100.00;98850.20;1747839;80;21195;-74
2022/08/14 00:28:02;;;;;;;14.25;10.45;;;;;;;19.65;100.00;98844.92;1770062;80;21007;-75
2022/08/14 00:30:29;;;;;;;13.25;11.80;;;;;;;19.65;100.00;98844.92;1769714;78;20958;-75
2022/08/14 00:32:56;;;;;;;12.68;9.93;;;;;;;19.64;100.00;98849.36;1766724;80;20994;-74
2022/08/14 00:35:22;;;;;;;15.40;10.53;;;;;;;19.65;100.00;98845.76;1774552;78;21002;-74
2022/08/14 00:37:49;;;;;;;15.18;11.18;;;;;;;19.65;100.00;98844.44;1771584;80;21818;-75
2022/08/14 00:40:17;;;;;;;12.55;11.25;;;;;;;19.66;100.00;98832.91;1762198;79;20953;-75
2022/08/14 00:42:58;;;;;;;16.62;11.38;;;;;;;19.66;100.00;98838.67;1763077;79;21014;-75
2022/08/14 00:45:26;;;;;;;13.70;10.48;;;;;;;19.65;100.00;98837.01;1762701;80;21204;-75
2022/08/14 00:47:53;;;;;;;14.07;10.88;;;;;;;19.63;100.00;98833.67;1762530;79;21097;-75
2022/08/14 00:50:20;;;;;;;13.13;10.90;;;;;;;19.61;100.00;98827.20;1751265;80;21151;-75
2022/08/14 00:52:51;;;;;;;12.58;11.38;;;;;;;19.61;100.00;98827.20;1742116;80;21490;-74
2022/08/14 00:55:18;;;;;;;15.13;11.60;;;;;;;19.58;100.00;98816.44;1736826;81;21091;-74
2022/08/14 00:57:45;;;;;;;18.85;11.63;;;;;;;19.54;100.00;98822.98;1758969;79;20971;-74
2022/08/14 01:00:13;;;;;;;12.23;10.82;;;;;;;19.54;100.00;98832.70;1761008;81;21526;-74
2022/08/14 01:02:42;;;;;;;18.98;10.80;;;;;;;19.51;100.00;98825.88;1767419;80;21261;-74
2022/08/14 01:05:22;;;;;;;16.97;11.83;;;;;;;19.49;100.00;98825.63;1755798;81;20959;-74
2022/08/14 01:07:38;;;;;;;13.58;12.20;;;;;;;19.45;100.00;98818.47;1743199;79;20946;-76
2022/08/14 01:10:07;;;;;;;11.75;10.45;;;;;;;19.42;100.00;98831.09;1770260;80;21141;-75
2022/08/14 01:12:35;;;;;;;16.15;10.50;;;;;;;19.39;100.00;98829.55;1767315;79;21750;-74
2022/08/14 01:15:02;;;;;;;15.72;10.65;;;;;;;19.38;100.00;98828.39;1750475;80;21218;-75
2022/08/14 01:23:01;;;;;;;16.10;10.98;;;;;;;19.33;100.00;98816.92;1748784;80;21179;-75
2022/08/14 01:25:27;;;;;;;11.53;10.32;;;;;;;19.31;100.00;98818.02;1760185;81;21117;-75
2022/08/14 01:27:57;;;;;;;12.65;10.68;;;;;;;19.28;100.00;98815.17;1756238;80;21139;-75
2022/08/14 01:30:25;;;;;;;18.05;10.68;;;;;;;19.22;100.00;98817.02;1766329;80;21007;-75
2022/08/14 01:32:51;;;;;;;11.38;10.25;;;;;;;19.16;100.00;98818.89;1751098;80;21046;-75
2022/08/14 01:35:18;;;;;;;11.45;10.25;;;;;;;19.09;100.00;98816.42;1737915;81;21003;-75
2022/08/14 01:37:47;;;;;;;12.60;10.30;;;;;;;19.03;100.00;98815.14;1746693;81;21049;-76
2022/08/14 01:40:14;;;;;;;17.80;10.13;;;;;;;19.00;100.00;98812.77;1752666;80;21143;-75
2022/08/14 01:42:42;;;;;;;14.40;9.65;;;;;;;18.97;100.00;98816.17;1762448;79;20938;-75
2022/08/14 01:45:11;;;;;;;18.65;10.82;;;;;;;18.91;100.00;98817.05;1759667;80;20979;-75
2022/08/14 01:54:39;;;;;;;11.48;10.30;;;;;;;18.81;100.00;98820.59;1768638;79;20970;-75
2022/08/14 01:57:10;;;;;;;15.25;10.80;;;;;;;18.79;100.00;98823.34;1757792;80;20993;-75
2022/08/14 02:07:11;;;;;;;15.40;9.83;;;;;;;18.75;100.00;98820.65;1765470;80;21088;-75
2022/08/14 08:42:45;;;;;;;10.43;7.58;;;;;;;25.87;69.91;98829.11;1769283;80;21038;-75
2022/08/14 09:54:47;;;;;;;6.90;6.28;;;;;;;28.05;59.03;98794.40;1756079;81;20944;-76
2022/08/14 09:57:26;;;;;;;7.17;6.47;;;;;;;28.15;58.44;98798.10;1754099;80;21498;-76
2022/08/14 11:16:06;;;;;;;8.13;7.42;;;;;;;26.42;74.40;98869.38;1738638;81;21139;-76
2022/08/14 11:31:27;;;;;;;12.50;10.15;;;;;;;25.86;76.17;98863.42;1708692;83;20959;-74
2022/08/14 11:49:41;;;;;;;7.72;6.92;;;;;;;25.56;72.95;98806.98;1676354;84;21080;-75
2022/08/14 12:17:18;;;;;;;8.53;7.53;;;;;;;24.73;78.25;98754.23;1701529;82;21427;-75
2022/08/14 12:19:51;;;;;;;11.25;7.67;;;;;;;24.60;78.78;98768.04;1700932;83;40130;-76
2022/08/14 12:22:33;;;;;;;6.70;6.10;;;;;;;24.48;80.03;98809.28;1680095;84;20960;-76
2022/08/14 12:25:02;;;;;;;8.83;6.87;;;;;;;24.37;80.24;98799.84;1646135;84;21151;-76
2022/08/14 12:27:49;;;;;;;8.45;6.80;;;;;;;24.31;79.79;98800.49;1652695;86;21574;-76
2022/08/14 12:30:39;;;;;;;8.53;7.53;;;;;;;24.30;79.62;98810.79;1651018;85;21060;-75
2022/08/14 12:33:26;;;;;;;7.47;6.87;;;;;;;24.28;79.98;98802.66;1706677;82;21869;-75
2022/08/14 12:35:54;;;;;;;7.47;6.78;;;;;;;24.29;79.68;98787.88;1680456;83;21019;-75
2022/08/14 12:38:47;;;;;;;7.75;6.53;;;;;;;24.35;79.03;98787.71;1686133;83;21134;-74
2022/08/14 12:41:20;;;;;;;8.73;6.77;;;;;;;24.42;78.45;98781.20;1670112;83;20973;-76
2022/08/14 12:43:55;;;;;;;7.75;6.92;;;;;;;24.50;78.37;98766.58;1645811;85;21137;-76
2022/08/14 12:46:40;;;;;;;8.08;7.03;;;;;;;24.56;78.41;98749.96;1683275;83;21058;-76
2022/08/14 12:49:12;;;;;;;7.47;6.85;;;;;;;24.58;77.58;98758.08;1673111;84;21016;-75
2022/08/14 12:51:39;;;;;;;8.05;7.05;;;;;;;24.61;76.55;98752.42;1678159;84;26741;-75
2022/08/14 12:54:17;;;;;;;13.05;6.58;;;;;;;24.65;76.27;98747.09;1671227;85;21113;-75
2022/08/14 12:56:46;;;;;;;7.22;6.35;;;;;;;24.69;75.34;98735.13;1683302;83;20980;-76
2022/08/14 12:59:13;;;;;;;8.88;6.83;;;;;;;24.74;75.62;98721.33;1682976;85;21312;-76
2022/08/14 13:01:41;;;;;;;7.33;6.62;;;;;;;24.82;76.22;98715.95;1670419;85;20972;-76
2022/08/14 13:04:11;;;;;;;8.90;6.47;;;;;;;24.92;75.78;98713.11;1673250;85;21116;-75
2022/08/14 13:06:42;;;;;;;7.72;6.90;;;;;;;25.01;75.78;98705.43;1678967;84;21249;-76
2022/08/14 13:09:09;;;;;;;8.63;7.15;;;;;;;25.05;74.72;98699.59;1684125;85;21074;-76
2022/08/14 13:11:50;;;;;;;7.55;6.95;;;;;;;25.10;75.32;98699.08;1680251;85;21087;-76
2022/08/14 13:14:32;;;;;;;9.50;6.17;;;;;;;25.15;74.99;98703.38;1650282;86;21104;-75
2022/08/14 13:17:00;;;;;;;7.08;6.37;;;;;;;25.23;74.43;98708.64;1648177;85;21080;-76
2022/08/14 13:19:28;;;;;;;9.30;6.67;;;;;;;25.29;74.29;98723.09;1649777;86;21476;-76
2022/08/14 13:22:03;;;;;;;9.60;7.15;;;;;;;25.31;73.55;98713.93;1636631;86;21131;-76
2022/08/14 13:24:30;;;;;;;13.32;7.58;;;;;;;25.31;74.60;98715.27;1647238;86;21286;-76
2022/08/14 13:27:03;;;;;;;8.18;6.97;;;;;;;25.35;74.61;98716.57;1654135;86;21246;-76
2022/08/14 13:29:43;;;;;;;12.00;7.05;;;;;;;25.39;73.81;98713.86;1653017;86;21521;-76
2022/08/14 13:32:09;;;;;;;8.00;7.13;;;;;;;25.40;74.12;98708.86;1706006;83;20991;-76
2022/08/14 13:34:36;;;;;;;7.53;6.78;;;;;;;25.39;74.01;98701.05;1705184;82;21038;-77
2022/08/14 13:37:05;;;;;;;8.33;6.45;;;;;;;25.41;74.46;98695.88;1707295;82;21138;-76
2022/08/14 13:39:32;;;;;;;8.43;6.50;;;;;;;25.43;73.92;98690.38;1679578;85;21012;-76
2022/08/14 13:42:03;;;;;;;7.47;6.78;;;;;;;25.44;74.28;98688.05;1712238;82;21061;-76
2022/08/14 13:44:27;;;;;;;10.53;7.28;;;;;;;25.44;73.81;98678.73;1716705;82;21025;-76
2022/08/14 13:46:54;;;;;;;7.90;6.75;;;;;;;25.46;73.09;98683.88;1683633;83;20983;-76
2022/08/14 13:49:20;;;;;;;7.22;6.60;;;;;;;25.48;73.45;98684.53;1642585;85;21128;-76
2022/08/14 13:51:49;;;;;;;12.28;7.60;;;;;;;25.50;72.85;98678.53;1645780;86;20968;-76
2022/08/14 13:54:24;;;;;;;10.05;6.60;;;;;;;25.50;72.34;98683.86;1657414;86;21580;-76
2022/08/14 13:56:51;;;;;;;10.55;6.92;;;;;;;25.54;73.17;98685.16;1653236;85;21044;-77
2022/08/14 13:59:17;;;;;;;7.58;6.08;;;;;;;25.57;73.10;98693.63;1648106;84;21099;-77
2022/08/14 14:01:44;;;;;;;8.20;6.15;;;;;;;25.62;73.19;98686.41;1643535;86;21642;-76
2022/08/14 14:04:17;;;;;;;7.28;6.37;;;;;;;25.67;72.35;98692.91;1636033;85;21671;-77
2022/08/14 14:06:51;;;;;;;11.63;6.92;;;;;;;25.73;71.99;98690.87;1636515;85;21135;-75
2022/08/14 14:09:22;;;;;;;9.40;6.17;;;;;;;25.78;70.70;98694.30;1641777;85;21127;-76
2022/08/14 14:11:49;;;;;;;9.13;6.53;;;;;;;25.80;69.85;98712.77;1644832;85;20968;-76
2022/08/14 14:14:25;;;;;;;9.90;6.03;;;;;;;25.81;69.50;98697.12;1688183;83;21114;-77
2022/08/14 14:16:51;;;;;;;7.42;6.03;;;;;;;25.82;68.17;98702.27;1666836;84;20977;-76
2022/08/14 14:19:30;;;;;;;10.05;6.30;;;;;;;25.81;67.55;98712.59;1638087;86;21012;-77
2022/08/14 14:21:56;;;;;;;9.88;5.97;;;;;;;25.81;68.07;98708.60;1652760;86;21104;-77
2022/08/14 14:24:23;;;;;;;7.22;6.25;;;;;;;25.83;67.69;98710.59;1704123;83;21504;-77
2022/08/14 14:26:50;;;;;;;6.90;6.28;;;;;;;25.82;67.43;98710.26;1693640;83;21085;-77
2022/08/14 14:29:18;;;;;;;10.08;6.08;;;;;;;25.82;68.05;98706.77;1712515;82;21046;-77
2022/08/14 14:31:47;;;;;;;7.97;6.40;;;;;;;25.82;68.13;98704.10;1668466;85;21047;-76
2022/08/14 14:34:13;;;;;;;7.12;5.53;;;;;;;25.81;67.80;98707.77;1633970;86;21545;-76
2022/08/14 14:36:40;;;;;;;6.65;5.85;;;;;;;25.81;68.41;98717.09;1674927;84;21066;-76
2022/08/14 14:39:07;;;;;;;7.10;6.28;;;;;;;25.83;68.84;98722.58;1602655;85;21181;-76
2022/08/14 14:41:38;;;;;;;7.55;6.08;;;;;;;25.83;69.26;98716.42;1698918;82;21187;-77
2022/08/14 14:44:06;;;;;;;8.60;6.17;;;;;;;25.84;69.49;98724.73;1683767;83;21087;-76
2022/08/14 14:46:37;;;;;;;6.70;5.50;;;;;;;25.82;69.95;98726.75;1681747;84;21087;-75
2022/08/14 14:49:06;;;;;;;8.10;5.40;;;;;;;25.84;70.10;98736.22;1707893;83;20994;-76
2022/08/14 14:51:39;;;;;;;8.33;5.87;;;;;;;25.81;69.99;98725.92;1708105;82;21122;-75
2022/08/14 14:54:07;;;;;;;7.80;5.83;;;;;;;25.76;70.52;98726.98;1708108;83;21586;-76
2022/08/14 14:56:34;;;;;;;8.90;5.67;;;;;;;25.69;71.03;98731.34;1705239;83;21184;-76
2022/08/14 14:59:00;;;;;;;6.95;6.25;;;;;;;25.63;71.38;98734.21;1716393;83;21034;-75
2022/08/14 15:01:31;;;;;;;8.85;6.17;;;;;;;25.56;71.42;98731.09;1661822;85;21032;-75
2022/08/14 15:04:05;;;;;;;7.83;6.33;;;;;;;25.48;72.02;98735.13;1643460;86;21863;-75
2022/08/14 15:06:33;;;;;;;6.35;5.78;;;;;;;25.39;72.42;98735.16;1635709;86;20985;-76
2022/08/14 15:09:00;;;;;;;6.85;5.95;;;;;;;25.32;72.80;98734.72;1720017;82;20980;-77
2022/08/14 15:11:27;;;;;;;9.05;5.83;;;;;;;25.23;73.39;98733.92;1686823;84;21071;-76
2022/08/14 15:13:54;;;;;;;8.38;6.00;;;;;;;25.16;74.11;98732.98;1686159;84;20963;-77
2022/08/14 15:16:20;;;;;;;7.45;5.53;;;;;;;25.11;74.58;98734.00;1683891;84;21763;-76
2022/08/14 15:18:47;;;;;;;9.68;6.42;;;;;;;25.09;75.02;98735.17;1680575;83;21094;-76
2022/08/14 15:21:13;;;;;;;9.33;6.22;;;;;;;25.06;75.41;98738.50;1682439;84;21137;-76
2022/08/14 15:23:40;;;;;;;7.40;5.58;;;;;;;25.03;75.21;98740.67;1686469;84;21131;-76
2022/08/14 15:26:07;;;;;;;10.35;6.45;;;;;;;24.99;75.55;98740.69;1719490;82;21108;-76
2022/08/14 15:28:42;;;;;;;9.33;6.12;;;;;;;24.96;76.07;98740.55;1719148;82;21801;-75
2022/08/14 15:31:08;;;;;;;8.90;6.15;;;;;;;24.93;76.32;98746.19;1718882;82;21091;-76
2022/08/14 15:36:34;;;;;;;11.30;5.50;;;;;;;24.87;75.07;98745.53;1672635;85;21100;-76
2022/08/14 15:39:02;;;;;;;7.95;5.30;;;;;;;24.78;74.35;98749.73;1665437;85;20974;-76
2022/08/14 15:41:29;;;;;;;14.20;6.10;;;;;;;24.71;72.76;98751.74;1703979;83;21076;-76
2022/08/14 15:43:58;;;;;;;9.78;5.65;;;;;;;24.66;73.24;98750.09;1693169;83;21010;-76
2022/08/14 15:46:24;;;;;;;8.30;5.83;;;;;;;24.63;72.70;98743.78;1675068;84;20972;-76
2022/08/14 15:48:52;;;;;;;9.85;6.20;;;;;;;24.60;73.15;98745.94;1722551;83;21596;-76
2022/08/14 15:51:19;;;;;;;10.30;6.35;;;;;;;24.55;73.79;98741.16;1705447;83;21093;-75
2022/08/14 15:53:46;;;;;;;8.55;5.97;;;;;;;24.50;74.01;98743.98;1682903;84;21547;-76
2022/08/14 15:56:24;;;;;;;11.00;5.58;;;;;;;24.44;74.30;98741.50;1642955;86;20978;-76
2022/08/14 15:58:57;;;;;;;7.62;5.75;;;;;;;24.39;74.79;98735.35;1616929;86;21687;-76
2022/08/14 16:01:24;;;;;;;;;;;;;;;24.34;74.94;98747.02;1664051;86;21295;-76
2022/08/14 16:03:54;;;;;;;9.23;6.00;;;;;;;24.30;75.45;98751.49;1630277;85;20169;-76
2022/08/14 16:06:28;;;;;;;6.37;5.72;;;;;;;24.24;75.67;98733.06;1647954;86;21157;-76
2022/08/14 16:09:03;;;;;;;8.45;6.22;;;;;;;24.22;76.31;98734.19;1646625;85;20985;-76
2022/08/14 16:11:29;;;;;;;5.97;5.42;;;;;;;24.18;77.02;98739.00;1635119;85;21092;-77
2022/08/14 16:14:00;;;;;;;8.03;5.78;;;;;;;24.13;77.68;98736.04;1637531;85;21584;-76
2022/08/14 16:16:27;;;;;;;8.55;5.70;;;;;;;24.10;78.22;98739.03;1623914;85;21553;-76
2022/08/14 16:18:56;;;;;;;8.53;5.30;;;;;;;24.06;78.53;98735.03;1633391;85;21165;-76
2022/08/14 16:21:28;;;;;;;14.10;6.22;;;;;;;24.01;78.82;98736.86;1642761;86;20990;-76
2022/08/14 16:23:53;;;;;;;6.65;6.05;;;;;;;23.99;78.76;98744.16;1655708;86;21049;-76
2022/08/14 16:26:23;;;;;;;9.63;5.80;;;;;;;23.95;78.74;98742.03;1623750;86;21057;-76
2022/08/14 16:28:56;;;;;;;11.38;5.70;;;;;;;23.91;79.22;98746.83;1646170;83;21120;-76
2022/08/14 16:31:23;;;;;;;9.45;5.90;;;;;;;23.87;79.21;98742.84;1676526;84;21205;-75
2022/08/14 16:33:50;;;;;;;8.95;6.22;;;;;;;23.83;79.66;98739.34;1667736;84;21183;-77
2022/08/14 16:36:25;;;;;;;7.03;5.85;;;;;;;23.77;79.99;98728.91;1673084;84;21123;-76
2022/08/14 16:38:53;;;;;;;8.25;5.95;;;;;;;23.74;80.55;98730.56;1663689;84;21084;-76
2022/08/14 16:41:25;;;;;;;10.23;6.20;;;;;;;23.69;80.99;98742.17;1652756;84;21042;-76
2022/08/14 16:43:48;;;;;;;8.40;5.65;;;;;;;23.63;81.43;98733.52;1677452;85;21303;-76
2022/08/14 16:46:17;;;;;;;9.30;5.75;;;;;;;23.59;81.58;98746.78;1669635;85;21005;-77
2022/08/14 16:48:52;;;;;;;6.10;5.33;;;;;;;23.52;81.71;98742.65;1637821;86;21000;-76
2022/08/14 16:51:19;;;;;;;12.65;5.92;;;;;;;23.47;81.41;98743.59;1656486;86;21023;-76
2022/08/14 16:53:53;;;;;;;6.22;5.62;;;;;;;23.41;81.20;98743.41;1710354;83;21077;-76
2022/08/14 16:56:25;;;;;;;6.20;5.30;;;;;;;23.35;81.22;98747.06;1712202;82;21149;-76
2022/08/14 16:59:19;;;;;;;7.40;5.22;;;;;;;23.32;80.89;98740.75;1708407;82;21058;-76
2022/08/14 17:02:05;;;;;;;8.48;6.05;;;;;;;23.28;80.84;98743.87;1721771;82;21513;-75
2022/08/14 17:04:42;;;;;;;9.45;5.60;;;;;;;23.22;81.03;98740.04;1699620;82;21113;-76
2022/08/14 17:07:12;;;;;;;6.55;4.90;;;;;;;23.16;80.62;98744.69;1696376;83;21601;-75
2022/08/14 17:09:44;;;;;;;9.75;5.47;;;;;;;23.13;80.92;98746.83;1699332;82;21266;-76
2022/08/14 17:12:24;;;;;;;6.83;5.17;;;;;;;23.08;81.14;98745.97;1703697;83;20951;-76
2022/08/14 17:15:06;;;;;;;7.12;5.37;;;;;;;23.05;81.38;98746.28;1678424;83;21001;-76
2022/08/14 17:17:47;;;;;;;7.30;5.40;;;;;;;23.00;81.31;98749.91;1676324;84;21028;-77
2022/08/14 17:20:16;;;;;;;11.97;5.78;;;;;;;22.96;81.46;98748.59;1700433;83;21043;-76
2022/08/14 17:22:59;;;;;;;5.33;4.83;;;;;;;22.90;81.80;98750.05;1700063;82;21142;-76
2022/08/14 17:25:30;;;;;;;6.03;5.20;;;;;;;22.84;82.04;98750.67;1713754;82;21434;-76
2022/08/14 17:28:22;;;;;;;5.92;4.97;;;;;;;22.78;82.33;98760.58;1680843;84;21557;-77
2022/08/14 17:30:55;;;;;;;11.60;5.42;;;;;;;22.75;82.83;98764.03;1705469;83;21520;-77
2022/08/14 17:33:34;;;;;;;7.03;5.58;;;;;;;22.69;83.17;98763.66;1710380;82;21022;-76
2022/08/14 17:36:16;;;;;;;6.62;5.58;;;;;;;22.67;83.33;98756.85;1715551;82;21212;-77
2022/08/14 17:39:10;;;;;;;7.75;5.08;;;;;;;22.63;83.60;98761.63;1719096;83;20954;-77
2022/08/14 17:41:44;;;;;;;8.93;5.55;;;;;;;22.60;83.94;98765.09;1712984;83;21013;-77
2022/08/14 17:44:38;;;;;;;10.58;5.72;;;;;;;22.54;84.47;98767.06;1702777;81;21127;-77
2022/08/14 17:47:06;;;;;;;10.28;5.55;;;;;;;22.49;84.90;98764.87;1703853;82;21418;-77
2022/08/14 17:49:49;;;;;;;8.83;6.17;;;;;;;22.45;85.29;98762.67;1680598;84;21170;-77
2022/08/14 17:52:19;;;;;;;8.13;5.67;;;;;;;22.41;85.64;98767.45;1677439;84;21544;-78
2022/08/14 17:54:49;;;;;;;10.60;6.45;;;;;;;22.34;86.19;98768.59;1647621;85;21184;-78
2022/08/14 17:57:24;;;;;;;7.42;5.67;;;;;;;22.30;86.77;98773.02;1646930;85;21523;-76
2022/08/14 17:59:55;;;;;;;8.33;5.97;;;;;;;22.24;87.47;98769.66;1641932;86;20985;-76
2022/08/14 18:02:26;;;;;;;6.45;5.60;;;;;;;22.17;88.47;98769.45;1624341;86;21121;-76
2022/08/14 18:05:02;;;;;;;11.18;6.08;;;;;;;22.11;89.11;98764.77;1628543;86;21397;-75
2022/08/14 18:07:29;;;;;;;10.48;5.90;;;;;;;22.06;89.75;98760.41;1645883;86;21113;-76
2022/08/14 18:09:58;;;;;;;9.40;6.37;;;;;;;22.00;90.17;98762.34;1642686;84;21055;-75
2022/08/14 18:12:32;;;;;;;9.75;6.15;;;;;;;21.96;90.70;98766.27;1645048;86;21033;-75
2022/08/14 18:15:10;;;;;;;7.15;5.92;;;;;;;21.91;91.47;98761.92;1663006;86;21574;-76
2022/08/14 18:17:39;;;;;;;10.15;6.28;;;;;;;21.87;92.07;98769.81;1645800;86;21088;-75
2022/08/14 18:20:16;;;;;;;9.35;6.25;;;;;;;21.83;92.92;98767.13;1702184;83;21074;-75
2022/08/14 18:22:42;;;;;;;6.50;5.60;;;;;;;21.80;93.19;98766.11;1712186;83;21067;-75
2022/08/14 18:25:09;;;;;;;8.55;5.80;;;;;;;21.78;93.54;98769.42;1641461;84;21032;-75
2022/08/14 18:27:48;;;;;;;8.43;6.10;;;;;;;21.77;93.92;98755.36;1654020;86;21149;-76
2022/08/14 18:30:23;;;;;;;7.15;6.08;;;;;;;21.75;94.26;98763.10;1657887;86;20980;-76
2022/08/14 18:32:50;;;;;;;7.00;5.92;;;;;;;21.72;94.60;98762.91;1643254;86;21073;-76
2022/08/14 18:35:20;;;;;;;6.62;5.90;;;;;;;21.67;95.14;98757.23;1643856;85;21330;-76
2022/08/14 18:37:48;;;;;;;7.33;6.50;;;;;;;21.62;95.48;98762.97;1684529;84;21079;-76
2022/08/14 18:40:23;;;;;;;9.90;6.00;;;;;;;21.59;96.00;98763.27;1672302;84;21222;-75
2022/08/14 18:42:58;;;;;;;9.80;6.42;;;;;;;21.54;96.42;98756.29;1647975;86;21088;-76
2022/08/14 18:45:31;;;;;;;6.50;5.90;;;;;;;21.52;96.93;98756.09;1697338;83;20971;-76
2022/08/14 18:48:24;;;;;;;6.75;6.00;;;;;;;21.47;97.37;98752.56;1700519;82;21510;-76
2022/08/14 18:51:01;;;;;;;7.55;5.85;;;;;;;21.43;97.81;98743.75;1666762;84;21566;-75
2022/08/14 18:53:29;;;;;;;7.53;6.17;;;;;;;21.39;98.25;98743.70;1696514;82;21312;-76
2022/08/14 18:56:03;;;;;;;8.65;6.03;;;;;;;21.35;98.73;98748.48;1715338;83;21027;-75
2022/08/14 18:58:54;;;;;;;9.98;6.20;;;;;;;21.32;99.12;98743.48;1716947;82;20974;-76
2022/08/14 19:01:24;;;;;;;8.05;6.20;;;;;;;21.29;99.38;98741.97;1716978;83;20989;-76
2022/08/14 19:03:52;;;;;;;7.13;5.70;;;;;;;21.26;99.60;98740.94;1695326;83;21442;-76
2022/08/14 19:06:18;;;;;;;7.53;6.70;;;;;;;21.23;100.00;98731.97;1698081;83;21524;-76
2022/08/14 19:08:52;;;;;;;6.70;6.10;;;;;;;21.20;100.00;98735.40;1685135;84;21516;-76
2022/08/14 19:11:40;;;;;;;8.00;6.40;;;;;;;21.17;100.00;98735.69;1645145;86;21073;-76
2022/08/14 19:14:12;;;;;;;7.42;6.28;;;;;;;21.13;100.00;98734.31;1683904;84;21464;-76
2022/08/14 19:16:47;;;;;;;7.92;6.28;;;;;;;21.08;100.00;98733.44;1639539;85;21109;-76
2022/08/14 19:19:34;;;;;;;9.80;6.40;;;;;;;21.04;100.00;98738.66;1659228;86;21439;-77
2022/08/14 19:22:01;;;;;;;11.60;6.53;;;;;;;20.99;100.00;98735.13;1657742;86;21071;-76
2022/08/14 19:24:40;;;;;;;9.03;6.47;;;;;;;20.97;100.00;98741.09;1642817;84;21006;-77
2022/08/14 19:27:23;;;;;;;10.30;6.20;;;;;;;20.94;100.00;98740.05;1663298;85;21006;-77
2022/08/14 19:30:18;;;;;;;7.45;6.25;;;;;;;20.93;100.00;98740.20;1668742;85;21461;-77
2022/08/14 19:32:45;;;;;;;8.93;6.65;;;;;;;20.93;100.00;98738.88;1674898;85;21139;-77
2022/08/14 19:35:23;;;;;;;7.67;5.87;;;;;;;20.92;100.00;98743.33;1713371;82;20964;-77
2022/08/14 19:37:51;;;;;;;8.40;6.62;;;;;;;20.93;100.00;98737.06;1696887;82;20983;-76
2022/08/14 19:40:32;;;;;;;6.20;5.60;;;;;;;20.93;100.00;98740.20;1682959;84;21167;-76
2022/08/14 19:42:58;;;;;;;14.28;7.55;;;;;;;20.95;100.00;98743.53;1714598;82;20963;-76
2022/08/14 19:45:25;;;;;;;7.37;6.17;;;;;;;20.96;100.00;98745.20;1716648;83;21140;-76
2022/08/14 19:47:52;;;;;;;8.13;5.92;;;;;;;20.97;100.00;98745.05;1681688;84;20976;-76
2022/08/14 19:50:22;;;;;;;8.28;5.80;;;;;;;21.00;100.00;98741.25;1641015;84;20985;-76
2022/08/14 19:53:05;;;;;;;8.75;6.15;;;;;;;21.00;100.00;98746.55;1681618;83;21028;-76
2022/08/14 19:55:32;;;;;;;6.87;6.20;;;;;;;21.01;100.00;98740.28;1683634;84;20964;-77
2022/08/14 19:57:58;;;;;;;6.42;5.90;;;;;;;21.00;100.00;98747.86;1668244;84;21236;-77
2022/08/14 20:00:27;;;;;;;13.38;5.87;;;;;;;20.98;100.00;98744.56;1648472;84;21653;-77
2022/08/14 20:03:03;;;;;;;6.28;5.42;;;;;;;20.95;100.00;98750.14;1643639;84;20994;-77
2022/08/14 20:05:31;;;;;;;6.90;6.00;;;;;;;20.92;100.00;98751.75;1670109;85;22228;-77
2022/08/14 20:08:02;;;;;;;7.55;6.80;;;;;;;20.87;100.00;98750.02;1661329;85;21525;-75
2022/08/14 20:10:34;;;;;;;7.97;6.22;;;;;;;20.83;100.00;98742.87;1660826;84;21170;-77
2022/08/14 20:13:08;;;;;;;6.75;5.50;;;;;;;20.81;100.00;98745.31;1682515;84;21011;-76
2022/08/14 20:15:37;;;;;;;6.30;5.80;;;;;;;20.80;100.00;98744.48;1682794;83;20980;-77
2022/08/14 20:18:06;;;;;;;8.40;6.05;;;;;;;20.78;100.00;98741.17;1680185;84;21507;-76
2022/08/14 20:20:40;;;;;;;7.35;6.17;;;;;;;20.78;100.00;98737.70;1675522;83;21015;-76
2022/08/14 20:23:11;;;;;;;8.93;6.22;;;;;;;20.79;100.00;98735.37;1673741;85;21143;-76
2022/08/14 20:25:41;;;;;;;6.97;6.15;;;;;;;20.77;100.00;98739.52;1645545;86;21089;-76
2022/08/14 20:28:19;;;;;;;7.22;6.53;;;;;;;20.78;100.00;98739.02;1703048;83;21578;-76
2022/08/14 20:31:12;;;;;;;6.42;5.70;;;;;;;20.78;100.00;98737.70;1706203;83;21105;-76
2022/08/14 20:33:39;;;;;;;9.70;6.27;;;;;;;20.76;100.00;98740.98;1701788;83;21527;-76
2022/08/14 20:36:16;;;;;;;9.25;5.97;;;;;;;20.75;100.00;98743.27;1683929;83;21522;-77
2022/08/14 20:38:42;;;;;;;7.05;5.70;;;;;;;20.74;100.00;98742.92;1643587;86;20978;-77
2022/08/14 20:41:09;;;;;;;8.58;5.80;;;;;;;20.73;100.00;98739.94;1653219;86;21009;-77
2022/08/14 20:46:30;;;;;;;6.35;5.75;;;;;;;20.71;100.00;98744.05;1658264;86;21043;-77
2022/08/14 20:49:07;;;;;;;8.83;6.08;;;;;;;20.71;100.00;98741.89;1645091;86;21574;-76
2022/08/14 20:51:58;;;;;;;8.85;5.50;;;;;;;20.70;100.00;98738.91;1647262;86;21017;-77
2022/08/14 20:54:34;;;;;;;8.00;5.92;;;;;;;20.70;100.00;98737.58;1656488;85;21583;-76
2022/08/14 20:57:10;;;;;;;7.78;5.62;;;;;;;20.70;100.00;98734.94;1648821;86;21448;-77
2022/08/14 20:59:43;;;;;;;8.73;5.75;;;;;;;20.71;100.00;98745.37;1656442;85;21623;-77
2022/08/14 21:02:37;;;;;;;21.60;6.08;;;;;;;20.72;100.00;98743.06;1651828;86;22120;-76
2022/08/14 21:05:07;;;;;;;6.37;5.60;;;;;;;20.72;100.00;98730.34;1648980;85;21072;-76
2022/08/14 21:07:35;;;;;;;9.93;6.05;;;;;;;20.71;100.00;98738.77;1629993;86;21000;-76
2022/08/14 21:10:10;;;;;;;9.80;5.97;;;;;;;20.71;100.00;98741.89;1650297;85;21551;-76
2022/08/14 21:12:38;;;;;;;6.92;5.80;;;;;;;20.68;100.00;98735.08;1655727;86;21032;-77
2022/08/14 21:15:07;;;;;;;7.35;5.62;;;;;;;20.67;100.00;98732.58;1715592;82;21795;-77
2022/08/14 21:17:34;;;;;;;8.50;4.92;;;;;;;20.64;100.00;98737.17;1714324;82;21006;-76
2022/08/14 21:20:01;;;;;;;6.60;5.83;;;;;;;20.62;100.00;98743.09;1713821;83;20931;-77
2022/08/14 21:22:28;;;;;;;5.80;5.20;;;;;;;20.59;100.00;98742.54;1713310;83;21054;-76
2022/08/14 21:24:56;;;;;;;6.25;5.65;;;;;;;20.57;100.00;98747.16;1683092;85;21032;-76
2022/08/14 21:27:22;;;;;;;8.33;5.58;;;;;;;20.53;100.00;98746.62;1714051;82;21354;-77
2022/08/14 21:29:49;;;;;;;8.38;5.00;;;;;;;20.51;100.00;98747.73;1682009;84;21054;-76
2022/08/14 21:32:31;;;;;;;7.78;5.67;;;;;;;20.47;100.00;98752.95;1702368;82;20977;-76
2022/08/14 21:34:45;;;;;;;8.10;5.22;;;;;;;20.42;100.00;98752.05;1711206;83;21054;-76
2022/08/14 21:37:12;;;;;;;6.53;5.78;;;;;;;20.38;100.00;98761.27;1715422;83;21049;-77
2022/08/14 21:39:38;;;;;;;7.70;5.70;;;;;;;20.34;100.00;98754.56;1680980;84;21153;-77
2022/08/14 21:42:05;;;;;;;6.20;5.60;;;;;;;20.32;100.00;98758.31;1711306;83;21009;-76
2022/08/14 21:44:33;;;;;;;6.08;5.30;;;;;;;20.28;100.00;98753.80;1679872;84;21063;-77
2022/08/14 21:47:06;;;;;;;7.08;5.80;;;;;;;20.25;100.00;98759.36;1640273;85;21534;-77
2022/08/14 21:49:34;;;;;;;6.33;5.83;;;;;;;20.21;100.00;98748.73;1705398;82;21132;-77
2022/08/14 21:52:04;;;;;;;7.90;5.45;;;;;;;20.16;100.00;98749.17;1710202;82;21126;-76
2022/08/14 21:54:34;;;;;;;6.45;4.97;;;;;;;20.13;100.00;98751.26;1703447;82;21003;-76
2022/08/14 21:57:01;;;;;;;6.08;5.37;;;;;;;20.05;100.00;98750.64;1706194;83;21028;-77
2022/08/14 21:59:31;;;;;;;9.95;6.17;;;;;;;19.97;100.00;98739.12;1696518;83;21003;-76
2022/08/14 22:01:59;;;;;;;11.35;5.95;;;;;;;19.89;100.00;98732.73;1704185;82;21031;-76
2022/08/14 22:04:28;;;;;;;6.70;5.70;;;;;;;19.83;100.00;98735.09;1682818;84;21529;-76